sensor_id;sensor_type;location;lat;lon;timestamp;P1;durP1;ratioP1;P2;durP2;ratioP2
77012;SDS011;67260;53.130;17.982;2023-08-06T00:01:16;4.80;;;2.40;;
77012;SDS011;67260;53.130;17.982;2023-08-06T00:03:49;3.40;;;2.10;;
77012;SDS011;67260;53.130;17.982;2023-08-06T00:06:16;5.30;;;2.50;;
77012;SDS011;67260;53.130;17.982;2023-08-06T00:08:57;6.90;;;2.70;;
77012;SDS011;67260;53.130;17.982;2023-08-06T00:11:25;4.80;;;2.30;;
77012;SDS011;67260;53.130;17.982;2023-08-06T00:13:52;5.80;;;2.70;;
77012;SDS011;67260;53.130;17.982;2023-08-06T00:16:18;5.30;;;2.20;;
77012;SDS011;67260;53.130;17.982;2023-08-06T00:18:45;5.30;;;2.50;;
77012;SDS011;67260;53.130;17.982;2023-08-06T00:21:12;4.60;;;2.40;;
77012;SDS011;67260;53.130;17.982;2023-08-06T00:23:40;5.00;;;2.40;;
77012;SDS011;67260;53.130;17.982;2023-08-06T00:26:07;5.20;;;2.40;;
77012;SDS011;67260;53.130;17.982;2023-08-06T00:28:37;4.50;;;2.30;;
77012;SDS011;67260;53.130;17.982;2023-08-06T00:31:04;4.60;;;2.30;;
77012;SDS011;67260;53.130;17.982;2023-08-06T00:33:34;3.90;;;2.20;;
77012;SDS011;67260;53.130;17.982;2023-08-06T00:36:04;3.60;;;2.10;;
77012;SDS011;67260;53.130;17.982;2023-08-06T00:38:32;5.10;;;2.50;;
77012;SDS011;67260;53.130;17.982;2023-08-06T00:40:59;3.70;;;2.10;;
77012;SDS011;67260;53.130;17.982;2023-08-06T00:43:26;4.30;;;2.30;;
77012;SDS011;67260;53.130;17.982;2023-08-06T00:45:53;3.90;;;2.10;;
77012;SDS011;67260;53.130;17.982;2023-08-06T00:48:20;4.50;;;2.10;;
77012;SDS011;67260;53.130;17.982;2023-08-06T00:50:47;4.30;;;2.60;;
77012;SDS011;67260;53.130;17.982;2023-08-06T00:53:14;3.40;;;2.10;;
77012;SDS011;67260;53.130;17.982;2023-08-06T00:55:43;4.90;;;2.30;;
77012;SDS011;67260;53.130;17.982;2023-08-06T00:58:12;3.80;;;2.30;;
77012;SDS011;67260;53.130;17.982;2023-08-06T01:00:40;5.40;;;2.20;;
77012;SDS011;67260;53.130;17.982;2023-08-06T01:03:07;5.10;;;2.30;;
77012;SDS011;67260;53.130;17.982;2023-08-06T01:05:34;5.10;;;2.40;;
77012;SDS011;67260;53.130;17.982;2023-08-06T01:13:42;4.90;;;2.90;;
77012;SDS011;67260;53.130;17.982;2023-08-06T01:16:20;4.70;;;2.20;;
77012;SDS011;67260;53.130;17.982;2023-08-06T01:18:47;4.60;;;2.30;;
77012;SDS011;67260;53.130;17.982;2023-08-06T01:21:16;4.40;;;2.50;;
77012;SDS011;67260;53.130;17.982;2023-08-06T01:23:44;4.50;;;2.40;;
77012;SDS011;67260;53.130;17.982;2023-08-06T01:31:44;5.30;;;2.40;;
77012;SDS011;67260;53.130;17.982;2023-08-06T01:34:20;3.90;;;2.10;;
77012;SDS011;67260;53.130;17.982;2023-08-06T01:36:50;4.20;;;2.10;;
77012;SDS011;67260;53.130;17.982;2023-08-06T01:39:17;3.50;;;2.10;;
77012;SDS011;67260;53.130;17.982;2023-08-06T01:41:54;3.80;;;1.90;;
77012;SDS011;67260;53.130;17.982;2023-08-06T01:44:25;3.80;;;2.10;;
77012;SDS011;67260;53.130;17.982;2023-08-06T01:46:52;4.10;;;2.10;;
77012;SDS011;67260;53.130;17.982;2023-08-06T01:49:19;4.80;;;2.30;;
77012;SDS011;67260;53.130;17.982;2023-08-06T01:51:47;3.90;;;2.00;;
77012;SDS011;67260;53.130;17.982;2023-08-06T01:54:14;6.10;;;2.30;;
77012;SDS011;67260;53.130;17.982;2023-08-06T01:56:40;4.40;;;2.10;;
77012;SDS011;67260;53.130;17.982;2023-08-06T01:59:07;5.30;;;2.30;;
77012;SDS011;67260;53.130;17.982;2023-08-06T02:01:34;4.10;;;1.90;;
77012;SDS011;67260;53.130;17.982;2023-08-06T02:04:04;3.40;;;2.00;;
77012;SDS011;67260;53.130;17.982;2023-08-06T02:06:35;5.70;;;2.10;;
77012;SDS011;67260;53.130;17.982;2023-08-06T02:12:20;4.50;;;2.20;;
77012;SDS011;67260;53.130;17.982;2023-08-06T02:14:53;3.70;;;1.90;;
77012;SDS011;67260;53.130;17.982;2023-08-06T02:17:20;4.20;;;2.00;;
77012;SDS011;67260;53.130;17.982;2023-08-06T02:19:47;6.00;;;2.00;;
77012;SDS011;67260;53.130;17.982;2023-08-06T02:22:30;3.70;;;1.90;;
77012;SDS011;67260;53.130;17.982;2023-08-06T02:24:58;3.70;;;1.90;;
77012;SDS011;67260;53.130;17.982;2023-08-06T02:27:26;3.60;;;1.70;;
77012;SDS011;67260;53.130;17.982;2023-08-06T02:29:52;2.80;;;1.40;;
77012;SDS011;67260;53.130;17.982;2023-08-06T02:32:20;6.40;;;1.90;;
77012;SDS011;67260;53.130;17.982;2023-08-06T02:34:47;3.60;;;1.80;;
77012;SDS011;67260;53.130;17.982;2023-08-06T02:37:15;3.00;;;1.80;;
77012;SDS011;67260;53.130;17.982;2023-08-06T02:39:45;3.20;;;1.90;;
77012;SDS011;67260;53.130;17.982;2023-08-06T02:42:24;3.70;;;1.70;;
77012;SDS011;67260;53.130;17.982;2023-08-06T02:44:54;3.70;;;1.80;;
77012;SDS011;67260;53.130;17.982;2023-08-06T02:47:21;4.40;;;1.80;;
77012;SDS011;67260;53.130;17.982;2023-08-06T02:49:48;3.60;;;1.60;;
77012;SDS011;67260;53.130;17.982;2023-08-06T02:52:15;3.40;;;1.70;;
77012;SDS011;67260;53.130;17.982;2023-08-06T02:54:42;5.70;;;1.80;;
77012;SDS011;67260;53.130;17.982;2023-08-06T02:57:09;3.30;;;1.60;;
77012;SDS011;67260;53.130;17.982;2023-08-06T02:59:36;4.40;;;1.70;;
77012;SDS011;67260;53.130;17.982;2023-08-06T03:02:13;3.90;;;1.60;;
77012;SDS011;67260;53.130;17.982;2023-08-06T03:04:49;5.50;;;1.80;;
77012;SDS011;67260;53.130;17.982;2023-08-06T03:07:17;2.90;;;1.60;;
77012;SDS011;67260;53.130;17.982;2023-08-06T03:09:51;3.30;;;1.70;;
77012;SDS011;67260;53.130;17.982;2023-08-06T03:12:24;4.70;;;1.80;;
77012;SDS011;67260;53.130;17.982;2023-08-06T03:15:07;4.20;;;1.60;;
77012;SDS011;67260;53.130;17.982;2023-08-06T03:17:38;3.80;;;1.70;;
77012;SDS011;67260;53.130;17.982;2023-08-06T03:20:10;4.00;;;1.60;;
77012;SDS011;67260;53.130;17.982;2023-08-06T03:22:41;2.80;;;1.60;;
77012;SDS011;67260;53.130;17.982;2023-08-06T03:25:08;4.00;;;1.60;;
77012;SDS011;67260;53.130;17.982;2023-08-06T03:27:35;4.40;;;1.80;;
77012;SDS011;67260;53.130;17.982;2023-08-06T03:30:14;4.80;;;1.80;;
77012;SDS011;67260;53.130;17.982;2023-08-06T03:32:45;3.10;;;1.60;;
77012;SDS011;67260;53.130;17.982;2023-08-06T03:35:15;5.90;;;2.30;;
77012;SDS011;67260;53.130;17.982;2023-08-06T03:37:45;4.00;;;1.90;;
77012;SDS011;67260;53.130;17.982;2023-08-06T03:40:22;3.20;;;1.60;;
77012;SDS011;67260;53.130;17.982;2023-08-06T03:42:57;3.70;;;1.90;;
77012;SDS011;67260;53.130;17.982;2023-08-06T03:45:34;4.80;;;1.90;;
77012;SDS011;67260;53.130;17.982;2023-08-06T03:48:02;3.80;;;1.90;;
77012;SDS011;67260;53.130;17.982;2023-08-06T03:50:29;3.60;;;1.90;;
77012;SDS011;67260;53.130;17.982;2023-08-06T03:53:13;3.80;;;1.90;;
77012;SDS011;67260;53.130;17.982;2023-08-06T03:55:40;6.00;;;3.40;;
77012;SDS011;67260;53.130;17.982;2023-08-06T03:58:13;4.70;;;3.70;;
77012;SDS011;67260;53.130;17.982;2023-08-06T04:01:10;6.60;;;2.90;;
77012;SDS011;67260;53.130;17.982;2023-08-06T04:03:45;4.00;;;2.10;;
77012;SDS011;67260;53.130;17.982;2023-08-06T04:06:12;4.70;;;2.20;;
77012;SDS011;67260;53.130;17.982;2023-08-06T04:08:39;6.80;;;3.30;;
77012;SDS011;67260;53.130;17.982;2023-08-06T04:11:07;5.20;;;3.70;;
77012;SDS011;67260;53.130;17.982;2023-08-06T04:13:38;3.90;;;2.30;;
77012;SDS011;67260;53.130;17.982;2023-08-06T04:16:10;4.70;;;1.80;;
77012;SDS011;67260;53.130;17.982;2023-08-06T04:22:43;3.80;;;1.60;;
77012;SDS011;67260;53.130;17.982;2023-08-06T04:25:13;3.50;;;1.40;;
77012;SDS011;67260;53.130;17.982;2023-08-06T04:28:54;3.30;;;1.50;;
77012;SDS011;67260;53.130;17.982;2023-08-06T04:31:27;3.40;;;1.50;;
77012;SDS011;67260;53.130;17.982;2023-08-06T04:33:55;2.50;;;1.40;;
77012;SDS011;67260;53.130;17.982;2023-08-06T04:36:46;2.90;;;1.70;;
77012;SDS011;67260;53.130;17.982;2023-08-06T04:39:13;2.70;;;1.60;;
77012;SDS011;67260;53.130;17.982;2023-08-06T04:41:40;4.00;;;1.40;;
77012;SDS011;67260;53.130;17.982;2023-08-06T04:47:08;5.20;;;1.80;;
77012;SDS011;67260;53.130;17.982;2023-08-06T04:49:35;2.70;;;1.30;;
77012;SDS011;67260;53.130;17.982;2023-08-06T04:52:08;2.80;;;1.50;;
77012;SDS011;67260;53.130;17.982;2023-08-06T04:54:59;2.70;;;1.60;;
77012;SDS011;67260;53.130;17.982;2023-08-06T04:57:26;2.40;;;1.50;;
77012;SDS011;67260;53.130;17.982;2023-08-06T04:59:53;3.60;;;1.60;;
77012;SDS011;67260;53.130;17.982;2023-08-06T05:02:20;2.40;;;1.40;;
77012;SDS011;67260;53.130;17.982;2023-08-06T05:04:58;2.60;;;1.40;;
77012;SDS011;67260;53.130;17.982;2023-08-06T05:07:47;3.60;;;1.70;;
77012;SDS011;67260;53.130;17.982;2023-08-06T05:11:18;3.50;;;1.50;;
77012;SDS011;67260;53.130;17.982;2023-08-06T05:13:44;3.30;;;1.60;;
77012;SDS011;67260;53.130;17.982;2023-08-06T05:16:14;2.90;;;1.50;;
77012;SDS011;67260;53.130;17.982;2023-08-06T05:19:03;3.40;;;1.70;;
77012;SDS011;67260;53.130;17.982;2023-08-06T05:21:37;3.60;;;1.60;;
77012;SDS011;67260;53.130;17.982;2023-08-06T05:24:04;2.80;;;1.70;;
77012;SDS011;67260;53.130;17.982;2023-08-06T05:26:38;3.50;;;1.70;;
77012;SDS011;67260;53.130;17.982;2023-08-06T05:29:04;4.20;;;1.80;;
77012;SDS011;67260;53.130;17.982;2023-08-06T05:34:24;4.10;;;2.10;;
77012;SDS011;67260;53.130;17.982;2023-08-06T05:36:55;3.70;;;1.90;;
77012;SDS011;67260;53.130;17.982;2023-08-06T05:39:28;4.50;;;2.00;;
77012;SDS011;67260;53.130;17.982;2023-08-06T05:41:54;3.40;;;1.90;;
77012;SDS011;67260;53.130;17.982;2023-08-06T05:44:23;3.60;;;2.20;;
77012;SDS011;67260;53.130;17.982;2023-08-06T05:46:53;4.30;;;1.90;;
77012;SDS011;67260;53.130;17.982;2023-08-06T05:49:30;4.10;;;2.00;;
77012;SDS011;67260;53.130;17.982;2023-08-06T05:52:05;5.10;;;2.00;;
77012;SDS011;67260;53.130;17.982;2023-08-06T05:54:40;3.40;;;2.00;;
77012;SDS011;67260;53.130;17.982;2023-08-06T05:57:12;3.50;;;2.10;;
77012;SDS011;67260;53.130;17.982;2023-08-06T05:59:40;4.20;;;2.10;;
77012;SDS011;67260;53.130;17.982;2023-08-06T06:02:07;4.50;;;1.80;;
77012;SDS011;67260;53.130;17.982;2023-08-06T06:04:37;3.50;;;2.00;;
77012;SDS011;67260;53.130;17.982;2023-08-06T06:07:05;4.20;;;2.10;;
77012;SDS011;67260;53.130;17.982;2023-08-06T06:09:34;4.50;;;2.00;;
77012;SDS011;67260;53.130;17.982;2023-08-06T06:14:50;4.40;;;2.60;;
77012;SDS011;67260;53.130;17.982;2023-08-06T06:17:30;3.70;;;2.30;;
77012;SDS011;67260;53.130;17.982;2023-08-06T06:20:02;4.10;;;2.30;;
77012;SDS011;67260;53.130;17.982;2023-08-06T06:22:35;4.00;;;2.20;;
77012;SDS011;67260;53.130;17.982;2023-08-06T06:25:02;4.60;;;2.40;;
77012;SDS011;67260;53.130;17.982;2023-08-06T06:27:29;4.30;;;2.50;;
77012;SDS011;67260;53.130;17.982;2023-08-06T06:29:56;6.00;;;2.80;;
77012;SDS011;67260;53.130;17.982;2023-08-06T06:32:32;5.30;;;2.80;;
77012;SDS011;67260;53.130;17.982;2023-08-06T06:35:00;4.40;;;2.80;;
77012;SDS011;67260;53.130;17.982;2023-08-06T06:37:29;5.10;;;3.00;;
77012;SDS011;67260;53.130;17.982;2023-08-06T06:39:56;6.60;;;3.40;;
77012;SDS011;67260;53.130;17.982;2023-08-06T06:42:22;8.10;;;3.40;;
77012;SDS011;67260;53.130;17.982;2023-08-06T06:44:50;6.60;;;3.50;;
77012;SDS011;67260;53.130;17.982;2023-08-06T06:47:17;5.30;;;3.40;;
77012;SDS011;67260;53.130;17.982;2023-08-06T06:49:44;7.60;;;3.60;;
77012;SDS011;67260;53.130;17.982;2023-08-06T06:52:11;5.20;;;3.50;;
77012;SDS011;67260;53.130;17.982;2023-08-06T06:54:38;6.00;;;3.90;;
77012;SDS011;67260;53.130;17.982;2023-08-06T06:57:07;6.50;;;3.90;;
77012;SDS011;67260;53.130;17.982;2023-08-06T06:59:34;6.40;;;3.90;;
77012;SDS011;67260;53.130;17.982;2023-08-06T07:02:00;5.50;;;3.70;;
77012;SDS011;67260;53.130;17.982;2023-08-06T07:04:29;6.30;;;3.40;;
77012;SDS011;67260;53.130;17.982;2023-08-06T07:06:56;6.80;;;3.70;;
77012;SDS011;67260;53.130;17.982;2023-08-06T07:09:26;7.90;;;3.20;;
77012;SDS011;67260;53.130;17.982;2023-08-06T07:11:52;4.90;;;3.30;;
77012;SDS011;67260;53.130;17.982;2023-08-06T07:14:19;7.10;;;3.70;;
77012;SDS011;67260;53.130;17.982;2023-08-06T07:16:46;5.20;;;3.50;;
77012;SDS011;67260;53.130;17.982;2023-08-06T07:19:13;7.80;;;3.90;;
77012;SDS011;67260;53.130;17.982;2023-08-06T07:21:39;7.60;;;3.70;;
77012;SDS011;67260;53.130;17.982;2023-08-06T07:24:06;5.80;;;3.40;;
77012;SDS011;67260;53.130;17.982;2023-08-06T07:26:33;5.80;;;3.30;;
77012;SDS011;67260;53.130;17.982;2023-08-06T07:29:03;6.30;;;3.10;;
77012;SDS011;67260;53.130;17.982;2023-08-06T07:31:31;6.10;;;3.50;;
77012;SDS011;67260;53.130;17.982;2023-08-06T07:34:00;4.70;;;3.20;;
77012;SDS011;67260;53.130;17.982;2023-08-06T07:36:26;5.40;;;3.30;;
77012;SDS011;67260;53.130;17.982;2023-08-06T07:38:53;5.10;;;3.10;;
77012;SDS011;67260;53.130;17.982;2023-08-06T07:41:23;5.10;;;3.20;;
77012;SDS011;67260;53.130;17.982;2023-08-06T07:43:50;5.20;;;2.90;;
77012;SDS011;67260;53.130;17.982;2023-08-06T07:46:20;5.80;;;3.10;;
77012;SDS011;67260;53.130;17.982;2023-08-06T07:48:53;6.60;;;3.40;;
77012;SDS011;67260;53.130;17.982;2023-08-06T07:51:20;4.20;;;2.80;;
77012;SDS011;67260;53.130;17.982;2023-08-06T07:53:47;4.70;;;2.80;;
77012;SDS011;67260;53.130;17.982;2023-08-06T07:56:13;5.20;;;3.30;;
77012;SDS011;67260;53.130;17.982;2023-08-06T07:58:40;6.10;;;3.00;;
77012;SDS011;67260;53.130;17.982;2023-08-06T08:01:07;6.20;;;3.40;;
77012;SDS011;67260;53.130;17.982;2023-08-06T08:03:33;6.50;;;3.00;;
77012;SDS011;67260;53.130;17.982;2023-08-06T08:06:00;5.10;;;3.40;;
77012;SDS011;67260;53.130;17.982;2023-08-06T08:08:27;5.20;;;3.10;;
77012;SDS011;67260;53.130;17.982;2023-08-06T08:10:54;6.30;;;3.00;;
77012;SDS011;67260;53.130;17.982;2023-08-06T08:13:21;5.30;;;3.20;;
77012;SDS011;67260;53.130;17.982;2023-08-06T08:19:11;6.40;;;3.30;;
77012;SDS011;67260;53.130;17.982;2023-08-06T08:21:39;5.50;;;3.20;;
77012;SDS011;67260;53.130;17.982;2023-08-06T08:24:10;5.90;;;3.30;;
77012;SDS011;67260;53.130;17.982;2023-08-06T08:26:40;6.40;;;3.60;;
77012;SDS011;67260;53.130;17.982;2023-08-06T08:29:21;4.40;;;3.10;;
77012;SDS011;67260;53.130;17.982;2023-08-06T08:31:55;6.60;;;3.50;;
77012;SDS011;67260;53.130;17.982;2023-08-06T08:34:37;5.50;;;3.30;;
77012;SDS011;67260;53.130;17.982;2023-08-06T08:40:32;5.20;;;2.90;;
77012;SDS011;67260;53.130;17.982;2023-08-06T08:43:02;6.80;;;2.80;;
77012;SDS011;67260;53.130;17.982;2023-08-06T08:45:35;5.50;;;3.30;;
77012;SDS011;67260;53.130;17.982;2023-08-06T08:48:07;4.40;;;3.00;;
77012;SDS011;67260;53.130;17.982;2023-08-06T08:50:49;5.40;;;2.90;;
77012;SDS011;67260;53.130;17.982;2023-08-06T08:56:12;4.60;;;2.80;;
77012;SDS011;67260;53.130;17.982;2023-08-06T08:59:33;5.10;;;3.50;;
77012;SDS011;67260;53.130;17.982;2023-08-06T09:05:19;4.40;;;3.00;;
77012;SDS011;67260;53.130;17.982;2023-08-06T09:07:50;6.10;;;3.40;;
77012;SDS011;67260;53.130;17.982;2023-08-06T09:11:35;5.90;;;3.70;;
77012;SDS011;67260;53.130;17.982;2023-08-06T09:14:07;5.90;;;3.70;;
77012;SDS011;67260;53.130;17.982;2023-08-06T09:16:35;6.70;;;3.40;;
77012;SDS011;67260;53.130;17.982;2023-08-06T09:19:57;7.00;;;4.10;;
77012;SDS011;67260;53.130;17.982;2023-08-06T09:22:25;6.50;;;3.70;;
77012;SDS011;67260;53.130;17.982;2023-08-06T09:25:08;5.80;;;3.90;;
77012;SDS011;67260;53.130;17.982;2023-08-06T09:27:39;6.30;;;4.10;;
77012;SDS011;67260;53.130;17.982;2023-08-06T09:30:06;5.90;;;3.90;;
77012;SDS011;67260;53.130;17.982;2023-08-06T09:32:51;6.30;;;4.60;;
77012;SDS011;67260;53.130;17.982;2023-08-06T09:35:28;7.50;;;4.50;;
77012;SDS011;67260;53.130;17.982;2023-08-06T09:53:21;8.50;;;4.80;;
77012;SDS011;67260;53.130;17.982;2023-08-06T10:00:37;8.90;;;4.80;;
77012;SDS011;67260;53.130;17.982;2023-08-06T10:10:10;8.60;;;4.90;;
77012;SDS011;67260;53.130;17.982;2023-08-06T10:12:38;8.90;;;5.20;;
77012;SDS011;67260;53.130;17.982;2023-08-06T10:15:17;6.80;;;4.20;;
77012;SDS011;67260;53.130;17.982;2023-08-06T10:18:10;8.20;;;4.50;;
77012;SDS011;67260;53.130;17.982;2023-08-06T10:20:51;7.00;;;4.10;;
77012;SDS011;67260;53.130;17.982;2023-08-06T10:23:39;6.00;;;3.90;;
77012;SDS011;67260;53.130;17.982;2023-08-06T10:26:34;6.70;;;3.80;;
77012;SDS011;67260;53.130;17.982;2023-08-06T10:29:35;5.80;;;3.70;;
77012;SDS011;67260;53.130;17.982;2023-08-06T10:32:45;5.50;;;3.60;;
77012;SDS011;67260;53.130;17.982;2023-08-06T10:35:37;5.20;;;3.20;;
77012;SDS011;67260;53.130;17.982;2023-08-06T10:38:17;4.60;;;3.00;;
77012;SDS011;67260;53.130;17.982;2023-08-06T10:48:19;5.20;;;3.10;;
77012;SDS011;67260;53.130;17.982;2023-08-06T10:50:59;5.10;;;3.30;;
77012;SDS011;67260;53.130;17.982;2023-08-06T10:53:29;4.80;;;3.10;;
77012;SDS011;67260;53.130;17.982;2023-08-06T10:56:32;4.30;;;3.10;;
77012;SDS011;67260;53.130;17.982;2023-08-06T11:15:20;4.30;;;2.60;;
77012;SDS011;67260;53.130;17.982;2023-08-06T11:28:07;6.00;;;2.80;;
77012;SDS011;67260;53.130;17.982;2023-08-06T11:30:38;4.20;;;2.70;;
77012;SDS011;67260;53.130;17.982;2023-08-06T11:33:24;5.60;;;3.20;;
77012;SDS011;67260;53.130;17.982;2023-08-06T11:35:55;4.90;;;3.10;;
77012;SDS011;67260;53.130;17.982;2023-08-06T11:38:30;5.00;;;3.30;;
77012;SDS011;67260;53.130;17.982;2023-08-06T11:41:07;4.00;;;2.90;;
77012;SDS011;67260;53.130;17.982;2023-08-06T11:51:29;5.00;;;2.90;;
77012;SDS011;67260;53.130;17.982;2023-08-06T11:54:01;5.90;;;3.20;;
77012;SDS011;67260;53.130;17.982;2023-08-06T11:56:32;4.40;;;3.20;;
77012;SDS011;67260;53.130;17.982;2023-08-06T11:58:59;6.80;;;3.60;;
77012;SDS011;67260;53.130;17.982;2023-08-06T12:01:37;5.10;;;3.50;;
77012;SDS011;67260;53.130;17.982;2023-08-06T12:07:39;6.70;;;3.80;;
77012;SDS011;67260;53.130;17.982;2023-08-06T12:13:05;7.70;;;5.00;;
77012;SDS011;67260;53.130;17.982;2023-08-06T12:19:54;9.20;;;5.80;;
77012;SDS011;67260;53.130;17.982;2023-08-06T12:22:34;11.10;;;6.10;;
77012;SDS011;67260;53.130;17.982;2023-08-06T12:25:38;8.60;;;6.30;;
77012;SDS011;67260;53.130;17.982;2023-08-06T12:31:07;16.30;;;7.80;;
77012;SDS011;67260;53.130;17.982;2023-08-06T12:33:50;11.00;;;7.50;;
77012;SDS011;67260;53.130;17.982;2023-08-06T12:36:20;11.80;;;7.00;;
77012;SDS011;67260;53.130;17.982;2023-08-06T12:38:47;10.40;;;7.50;;
77012;SDS011;67260;53.130;17.982;2023-08-06T12:41:14;12.40;;;8.10;;
77012;SDS011;67260;53.130;17.982;2023-08-06T12:43:41;14.10;;;8.20;;
77012;SDS011;67260;53.130;17.982;2023-08-06T12:46:20;12.60;;;9.10;;
77012;SDS011;67260;53.130;17.982;2023-08-06T12:48:51;16.10;;;9.20;;
77012;SDS011;67260;53.130;17.982;2023-08-06T12:51:23;12.80;;;9.40;;
77012;SDS011;67260;53.130;17.982;2023-08-06T12:56:48;13.60;;;9.80;;
77012;SDS011;67260;53.130;17.982;2023-08-06T12:59:18;15.70;;;10.70;;
77012;SDS011;67260;53.130;17.982;2023-08-06T13:01:46;15.00;;;10.80;;
77012;SDS011;67260;53.130;17.982;2023-08-06T13:04:13;19.60;;;11.10;;
77012;SDS011;67260;53.130;17.982;2023-08-06T13:06:41;13.90;;;10.40;;
77012;SDS011;67260;53.130;17.982;2023-08-06T13:09:13;16.30;;;13.00;;
77012;SDS011;67260;53.130;17.982;2023-08-06T13:11:45;17.50;;;11.70;;
77012;SDS011;67260;53.130;17.982;2023-08-06T13:15:26;17.40;;;11.80;;
77012;SDS011;67260;53.130;17.982;2023-08-06T13:17:57;17.00;;;11.50;;
77012;SDS011;67260;53.130;17.982;2023-08-06T13:20:26;16.30;;;11.60;;
77012;SDS011;67260;53.130;17.982;2023-08-06T13:22:58;17.70;;;11.40;;
77012;SDS011;67260;53.130;17.982;2023-08-06T13:44:48;15.30;;;10.70;;
77012;SDS011;67260;53.130;17.982;2023-08-06T13:47:17;16.50;;;11.30;;
77012;SDS011;67260;53.130;17.982;2023-08-06T13:56:10;16.20;;;10.00;;
77012;SDS011;67260;53.130;17.982;2023-08-06T13:58:44;14.30;;;9.80;;
77012;SDS011;67260;53.130;17.982;2023-08-06T14:01:21;16.60;;;9.80;;
77012;SDS011;67260;53.130;17.982;2023-08-06T14:04:06;13.90;;;10.40;;
77012;SDS011;67260;53.130;17.982;2023-08-06T14:06:57;17.60;;;11.60;;
77012;SDS011;67260;53.130;17.982;2023-08-06T14:10:17;14.20;;;11.50;;
77012;SDS011;67260;53.130;17.982;2023-08-06T14:13:05;15.00;;;11.10;;
77012;SDS011;67260;53.130;17.982;2023-08-06T14:15:49;15.50;;;11.60;;
77012;SDS011;67260;53.130;17.982;2023-08-06T14:18:33;19.10;;;10.30;;
77012;SDS011;67260;53.130;17.982;2023-08-06T14:25:16;13.90;;;10.80;;
77012;SDS011;67260;53.130;17.982;2023-08-06T14:28:14;14.30;;;10.00;;
77012;SDS011;67260;53.130;17.982;2023-08-06T14:30:54;10.10;;;7.10;;
77012;SDS011;67260;53.130;17.982;2023-08-06T14:33:24;12.40;;;7.40;;
77012;SDS011;67260;53.130;17.982;2023-08-06T14:36:06;11.50;;;7.60;;
77012;SDS011;67260;53.130;17.982;2023-08-06T14:39:04;9.30;;;6.00;;
77012;SDS011;67260;53.130;17.982;2023-08-06T14:41:52;6.60;;;5.00;;
77012;SDS011;67260;53.130;17.982;2023-08-06T14:45:59;6.40;;;4.20;;
77012;SDS011;67260;53.130;17.982;2023-08-06T14:48:49;5.60;;;3.50;;
77012;SDS011;67260;53.130;17.982;2023-08-06T14:51:41;4.70;;;3.40;;
77012;SDS011;67260;53.130;17.982;2023-08-06T14:54:26;5.80;;;3.20;;
77012;SDS011;67260;53.130;17.982;2023-08-06T14:57:29;5.50;;;3.10;;
77012;SDS011;67260;53.130;17.982;2023-08-06T15:00:37;3.20;;;1.70;;
77012;SDS011;67260;53.130;17.982;2023-08-06T15:06:22;2.70;;;1.00;;
77012;SDS011;67260;53.130;17.982;2023-08-06T15:08:52;1.40;;;0.90;;
77012;SDS011;67260;53.130;17.982;2023-08-06T15:11:31;1.60;;;0.80;;
77012;SDS011;67260;53.130;17.982;2023-08-06T15:14:11;3.80;;;0.90;;
77012;SDS011;67260;53.130;17.982;2023-08-06T15:16:47;1.50;;;0.90;;
77012;SDS011;67260;53.130;17.982;2023-08-06T15:19:15;2.50;;;0.90;;
77012;SDS011;67260;53.130;17.982;2023-08-06T15:21:56;1.30;;;0.80;;
77012;SDS011;67260;53.130;17.982;2023-08-06T15:24:52;1.40;;;0.80;;
77012;SDS011;67260;53.130;17.982;2023-08-06T15:27:20;1.70;;;0.90;;
77012;SDS011;67260;53.130;17.982;2023-08-06T15:29:56;1.70;;;1.00;;
77012;SDS011;67260;53.130;17.982;2023-08-06T15:32:26;1.60;;;0.80;;
77012;SDS011;67260;53.130;17.982;2023-08-06T15:34:56;1.40;;;0.90;;
77012;SDS011;67260;53.130;17.982;2023-08-06T15:37:31;2.30;;;1.20;;
77012;SDS011;67260;53.130;17.982;2023-08-06T15:40:01;4.50;;;1.00;;
77012;SDS011;67260;53.130;17.982;2023-08-06T15:42:28;4.20;;;1.00;;
77012;SDS011;67260;53.130;17.982;2023-08-06T15:44:55;1.70;;;0.70;;
77012;SDS011;67260;53.130;17.982;2023-08-06T15:47:22;1.30;;;0.80;;
77012;SDS011;67260;53.130;17.982;2023-08-06T15:49:49;1.50;;;0.90;;
77012;SDS011;67260;53.130;17.982;2023-08-06T15:52:19;2.10;;;0.80;;
77012;SDS011;67260;53.130;17.982;2023-08-06T15:54:47;1.90;;;0.60;;
77012;SDS011;67260;53.130;17.982;2023-08-06T15:57:21;1.10;;;0.50;;
77012;SDS011;67260;53.130;17.982;2023-08-06T16:00:07;1.80;;;0.60;;
77012;SDS011;67260;53.130;17.982;2023-08-06T16:02:43;1.10;;;0.60;;
77012;SDS011;67260;53.130;17.982;2023-08-06T16:05:19;0.70;;;0.50;;
77012;SDS011;67260;53.130;17.982;2023-08-06T16:07:50;1.00;;;0.70;;
77012;SDS011;67260;53.130;17.982;2023-08-06T16:10:17;2.40;;;0.60;;
77012;SDS011;67260;53.130;17.982;2023-08-06T16:12:45;2.30;;;0.90;;
77012;SDS011;67260;53.130;17.982;2023-08-06T16:15:21;1.40;;;0.80;;
77012;SDS011;67260;53.130;17.982;2023-08-06T16:17:48;0.70;;;0.60;;
77012;SDS011;67260;53.130;17.982;2023-08-06T16:20:15;1.40;;;0.70;;
77012;SDS011;67260;53.130;17.982;2023-08-06T16:22:42;1.80;;;0.80;;
77012;SDS011;67260;53.130;17.982;2023-08-06T16:25:09;1.20;;;0.70;;
77012;SDS011;67260;53.130;17.982;2023-08-06T16:27:43;1.10;;;0.70;;
77012;SDS011;67260;53.130;17.982;2023-08-06T16:30:11;3.00;;;0.60;;
77012;SDS011;67260;53.130;17.982;2023-08-06T16:32:40;1.00;;;0.60;;
77012;SDS011;67260;53.130;17.982;2023-08-06T16:35:07;1.50;;;0.60;;
77012;SDS011;67260;53.130;17.982;2023-08-06T16:37:36;1.80;;;0.80;;
77012;SDS011;67260;53.130;17.982;2023-08-06T16:40:15;2.00;;;0.80;;
77012;SDS011;67260;53.130;17.982;2023-08-06T16:42:43;1.60;;;0.80;;
77012;SDS011;67260;53.130;17.982;2023-08-06T16:45:10;2.70;;;0.80;;
77012;SDS011;67260;53.130;17.982;2023-08-06T16:47:40;2.80;;;1.00;;
77012;SDS011;67260;53.130;17.982;2023-08-06T16:50:10;1.30;;;0.70;;
77012;SDS011;67260;53.130;17.982;2023-08-06T16:52:37;2.20;;;0.80;;
77012;SDS011;67260;53.130;17.982;2023-08-06T16:55:24;1.60;;;0.80;;
77012;SDS011;67260;53.130;17.982;2023-08-06T16:58:04;2.70;;;0.90;;
77012;SDS011;67260;53.130;17.982;2023-08-06T17:00:36;1.20;;;0.70;;
77012;SDS011;67260;53.130;17.982;2023-08-06T17:03:03;1.10;;;0.70;;
77012;SDS011;67260;53.130;17.982;2023-08-06T17:05:31;1.70;;;0.80;;
77012;SDS011;67260;53.130;17.982;2023-08-06T17:08:11;2.90;;;0.60;;
77012;SDS011;67260;53.130;17.982;2023-08-06T17:10:38;2.40;;;0.70;;
77012;SDS011;67260;53.130;17.982;2023-08-06T17:13:09;2.70;;;0.80;;
77012;SDS011;67260;53.130;17.982;2023-08-06T17:15:38;1.70;;;0.70;;
77012;SDS011;67260;53.130;17.982;2023-08-06T17:18:07;2.50;;;0.80;;
77012;SDS011;67260;53.130;17.982;2023-08-06T17:20:49;1.70;;;0.70;;
77012;SDS011;67260;53.130;17.982;2023-08-06T17:23:34;4.40;;;0.80;;
77012;SDS011;67260;53.130;17.982;2023-08-06T17:26:19;1.40;;;0.70;;
77012;SDS011;67260;53.130;17.982;2023-08-06T17:28:53;1.80;;;0.70;;
77012;SDS011;67260;53.130;17.982;2023-08-06T17:31:34;2.40;;;0.80;;
77012;SDS011;67260;53.130;17.982;2023-08-06T17:34:08;1.00;;;0.60;;
77012;SDS011;67260;53.130;17.982;2023-08-06T17:37:20;3.40;;;1.30;;
77012;SDS011;67260;53.130;17.982;2023-08-06T17:39:58;1.70;;;0.70;;
77012;SDS011;67260;53.130;17.982;2023-08-06T17:42:35;0.90;;;0.60;;
77012;SDS011;67260;53.130;17.982;2023-08-06T17:45:17;1.20;;;0.60;;
77012;SDS011;67260;53.130;17.982;2023-08-06T17:48:00;1.10;;;0.70;;
77012;SDS011;67260;53.130;17.982;2023-08-06T17:50:44;1.10;;;0.60;;
77012;SDS011;67260;53.130;17.982;2023-08-06T17:53:26;2.30;;;0.80;;